EFMA

Mariehamn

Airport
ICAO code
EFMA
Summary
ICAO Region
EUR
ICAO Territory
Location

Jomala, Aland,

Coordinates
60° 7' 25" N , 19° 53' 59" E
KCC
Airport GND
Aircraft Ground De/Anti Icing
Airport RE
Landing on Contaminated Runways
Metar
Observation
EFMA 021720Z AUTO 06008KT 9999 OVC018 M01/M04 Q1036
Station
Mariehamn / Aland Island
Date/Time
2022-12-02 17:20:00
Wind direction
60°
Wind speed
08 kts
Lowest cloud amount
overcast
Temperature
-1°C
Dew point
-4°C
Humidity
80%
QNH
1036 hPa
Weather condition
n/a

Description

Regional airport on the island of Åland, an autonomous, Swedish speaking region of Finland.

Climatology

Humid Continental climate (Köppen climate classification Dfb) - Variable weather patterns and a large seasonal temperature variance. Summers are often warm and humid with frequent thunderstorms and winters can be very cold with frequent snowfall and persistent snow cover.

Runways

Designator Length Width Surface Rops
3/21 1903 60 ASP Yes/Yes

Airport map

Aerial View

SKYbrary Partners:

Safety knowledge contributed by: